Terminal Aerodrome Forecast
Issued by NWS Cleveland, OH

Home | Current Version | Previous Version | Text Only | Print | Product List | Glossary On
Versions: 1 2 3 4 5 6 7 8 9 10 11 12 13 14 15 16 17 18 19 20 21 22
000
FTUS41 KCLE 270105 AAA
TAFCLE
TAF AMD
KCLE 270105Z 2701/2806 24010KT P6SM -SHRA BKN050 OVC120
     FM270300 22006KT P6SM SCT050 BKN150
     FM270500 22008KT P6SM SCT035 BKN150
      TEMPO 2705/2709 SCT008 BKN015
     FM271400 29010KT P6SM FEW025 SCT045
     FM272100 28010KT P6SM BKN050
     FM280200 23008KT P6SM FEW045 SCT140=

USA.gov is the U.S. government's official web portal to all federal, state and local government web resources and services.